ポートルイス の空港の天気 - METARとTAF

サー・シウサガル・ラングラーム国際空港 ( FIMP / MRU ) - モーリシャス ポートルイス
飛行場実況気象(Metar)
観測時間04/25 10:00 MUT (04/25 06:00 UTC)
風向・風速南南西 5m/s
視程6000m
天気現象周辺でしゅう雨
少しの雲 雲底高度 300m
全天の8割程度の雲 雲底高度 460m
気温27℃
湿度79%
気圧1013hPa
METARFIMP 250600Z 20009KT 6000 VCSH FEW010 BKN015 27/23 Q1013
過去の天気等 Google飛行場航空写真 Wunderground天気予報

過去48時間のMETAR

飛行場予報(TAF)
発表時間: 4/25 09:30 MUT (4/25 05:30 UTC)
予報対象時間: 25日10時 MUT ~ 26日16時 MUT
風向・風速南西 3m/s
視程10km以上
全天の4割程度の雲 雲底高度 490m
全天の4割程度の雲 雲底高度 1,520m
25日10時 MUT ~ 25日12時 MUT に徐々に
風向・風速南西 5m/s
25日20時 MUT ~ 25日22時 MUT に徐々に
風向・風速不定 3m/s
TAF FIMP 250530Z 2506/2612 23005KT 9999 SCT016 SCT050
BECMG 2506/2508 23010KT
BECMG 2516/2518 VRB05KT